sensor_id;sensor_type;location;lat;lon;timestamp;temperature;humidity
14140;DHT22;7150;53.514;9.988;2023-03-15T00:00:06;8.40;83.50
14140;DHT22;7150;53.514;9.988;2023-03-15T00:02:35;8.40;83.50
14140;DHT22;7150;53.514;9.988;2023-03-15T00:05:00;8.40;83.60
14140;DHT22;7150;53.514;9.988;2023-03-15T00:07:26;8.40;83.40
14140;DHT22;7150;53.514;9.988;2023-03-15T00:09:52;8.40;83.50
14140;DHT22;7150;53.514;9.988;2023-03-15T00:12:18;8.40;83.50
14140;DHT22;7150;53.514;9.988;2023-03-15T00:14:43;8.20;83.90
14140;DHT22;7150;53.514;9.988;2023-03-15T00:17:09;8.10;84.40
14140;DHT22;7150;53.514;9.988;2023-03-15T00:19:36;8.00;84.90
14140;DHT22;7150;53.514;9.988;2023-03-15T00:22:01;8.10;85.30
14140;DHT22;7150;53.514;9.988;2023-03-15T00:24:26;8.10;85.30
14140;DHT22;7150;53.514;9.988;2023-03-15T00:26:52;8.20;85.40
14140;DHT22;7150;53.514;9.988;2023-03-15T00:29:18;8.30;85.20
14140;DHT22;7150;53.514;9.988;2023-03-15T00:31:44;8.30;85.10
14140;DHT22;7150;53.514;9.988;2023-03-15T00:34:09;8.30;85.10
14140;DHT22;7150;53.514;9.988;2023-03-15T00:36:38;8.30;85.10
14140;DHT22;7150;53.514;9.988;2023-03-15T00:39:04;8.40;84.90
14140;DHT22;7150;53.514;9.988;2023-03-15T00:41:29;8.40;84.90
14140;DHT22;7150;53.514;9.988;2023-03-15T00:43:56;8.40;84.70
14140;DHT22;7150;53.514;9.988;2023-03-15T00:46:21;8.50;84.60
14140;DHT22;7150;53.514;9.988;2023-03-15T00:48:48;8.50;84.40
14140;DHT22;7150;53.514;9.988;2023-03-15T00:51:17;8.70;84.40
14140;DHT22;7150;53.514;9.988;2023-03-15T00:53:45;8.70;84.10
14140;DHT22;7150;53.514;9.988;2023-03-15T00:56:13;8.70;83.90
14140;DHT22;7150;53.514;9.988;2023-03-15T00:58:39;8.70;84.00
14140;DHT22;7150;53.514;9.988;2023-03-15T01:01:07;8.70;83.90
14140;DHT22;7150;53.514;9.988;2023-03-15T01:03:33;8.60;83.90
14140;DHT22;7150;53.514;9.988;2023-03-15T01:05:58;8.50;84.00
14140;DHT22;7150;53.514;9.988;2023-03-15T01:08:28;8.50;83.90
14140;DHT22;7150;53.514;9.988;2023-03-15T01:10:54;8.50;84.10
14140;DHT22;7150;53.514;9.988;2023-03-15T01:13:19;8.50;84.10
14140;DHT22;7150;53.514;9.988;2023-03-15T01:15:46;8.50;84.30
14140;DHT22;7150;53.514;9.988;2023-03-15T01:18:12;8.50;84.50
14140;DHT22;7150;53.514;9.988;2023-03-15T01:20:41;8.50;84.60
14140;DHT22;7150;53.514;9.988;2023-03-15T01:23:07;8.50;84.60
14140;DHT22;7150;53.514;9.988;2023-03-15T01:25:33;8.50;84.80
14140;DHT22;7150;53.514;9.988;2023-03-15T01:27:59;8.40;85.70
14140;DHT22;7150;53.514;9.988;2023-03-15T01:30:24;8.40;85.00
14140;DHT22;7150;53.514;9.988;2023-03-15T01:32:50;8.30;85.10
14140;DHT22;7150;53.514;9.988;2023-03-15T01:35:15;8.20;85.30
14140;DHT22;7150;53.514;9.988;2023-03-15T01:37:41;8.20;86.60
14140;DHT22;7150;53.514;9.988;2023-03-15T01:40:09;8.20;86.70
14140;DHT22;7150;53.514;9.988;2023-03-15T01:42:50;8.10;87.20
14140;DHT22;7150;53.514;9.988;2023-03-15T01:45:52;8.00;88.00
14140;DHT22;7150;53.514;9.988;2023-03-15T01:48:18;7.90;88.80
14140;DHT22;7150;53.514;9.988;2023-03-15T01:50:45;7.90;90.00
14140;DHT22;7150;53.514;9.988;2023-03-15T01:53:11;8.00;90.20
14140;DHT22;7150;53.514;9.988;2023-03-15T01:55:37;7.90;90.30
14140;DHT22;7150;53.514;9.988;2023-03-15T01:58:03;8.00;90.40
14140;DHT22;7150;53.514;9.988;2023-03-15T02:00:31;7.90;90.50
14140;DHT22;7150;53.514;9.988;2023-03-15T02:03:03;8.00;90.70
14140;DHT22;7150;53.514;9.988;2023-03-15T02:05:33;8.10;90.70
14140;DHT22;7150;53.514;9.988;2023-03-15T02:08:01;8.20;90.90
14140;DHT22;7150;53.514;9.988;2023-03-15T02:10:38;8.20;90.50
14140;DHT22;7150;53.514;9.988;2023-03-15T02:13:05;8.20;90.30
14140;DHT22;7150;53.514;9.988;2023-03-15T02:15:32;8.20;90.20
14140;DHT22;7150;53.514;9.988;2023-03-15T02:17:57;8.10;90.20
14140;DHT22;7150;53.514;9.988;2023-03-15T02:23:24;8.30;90.10
14140;DHT22;7150;53.514;9.988;2023-03-15T02:28:19;8.30;90.00
14140;DHT22;7150;53.514;9.988;2023-03-15T02:30:46;8.30;90.00
14140;DHT22;7150;53.514;9.988;2023-03-15T02:38:41;8.60;89.50
14140;DHT22;7150;53.514;9.988;2023-03-15T02:41:07;8.70;89.30
14140;DHT22;7150;53.514;9.988;2023-03-15T02:43:33;8.60;88.90
14140;DHT22;7150;53.514;9.988;2023-03-15T02:46:00;8.60;88.70
14140;DHT22;7150;53.514;9.988;2023-03-15T02:48:28;8.70;88.70
14140;DHT22;7150;53.514;9.988;2023-03-15T02:50:53;8.70;88.40
14140;DHT22;7150;53.514;9.988;2023-03-15T02:53:19;8.60;88.20
14140;DHT22;7150;53.514;9.988;2023-03-15T02:55:44;8.70;88.20
14140;DHT22;7150;53.514;9.988;2023-03-15T02:58:10;8.70;88.10
14140;DHT22;7150;53.514;9.988;2023-03-15T03:00:35;8.70;88.40
14140;DHT22;7150;53.514;9.988;2023-03-15T03:03:00;8.70;87.60
14140;DHT22;7150;53.514;9.988;2023-03-15T03:05:26;8.60;87.50
14140;DHT22;7150;53.514;9.988;2023-03-15T03:07:52;8.70;87.50
14140;DHT22;7150;53.514;9.988;2023-03-15T03:10:18;8.70;87.40
14140;DHT22;7150;53.514;9.988;2023-03-15T03:12:44;8.70;87.30
14140;DHT22;7150;53.514;9.988;2023-03-15T03:15:10;8.80;87.30
14140;DHT22;7150;53.514;9.988;2023-03-15T03:17:37;8.70;87.20
14140;DHT22;7150;53.514;9.988;2023-03-15T03:20:07;8.80;87.20
14140;DHT22;7150;53.514;9.988;2023-03-15T03:22:35;8.80;86.90
14140;DHT22;7150;53.514;9.988;2023-03-15T03:25:00;8.70;86.70
14140;DHT22;7150;53.514;9.988;2023-03-15T03:27:27;8.70;86.80
14140;DHT22;7150;53.514;9.988;2023-03-15T03:29:52;8.70;86.80
14140;DHT22;7150;53.514;9.988;2023-03-15T03:32:18;8.80;86.90
14140;DHT22;7150;53.514;9.988;2023-03-15T03:34:43;8.70;86.90
14140;DHT22;7150;53.514;9.988;2023-03-15T03:37:19;8.70;87.00
14140;DHT22;7150;53.514;9.988;2023-03-15T03:39:45;8.60;87.30
14140;DHT22;7150;53.514;9.988;2023-03-15T03:42:11;8.50;87.60
14140;DHT22;7150;53.514;9.988;2023-03-15T03:44:36;8.50;87.80
14140;DHT22;7150;53.514;9.988;2023-03-15T03:47:02;8.60;88.10
14140;DHT22;7150;53.514;9.988;2023-03-15T03:49:28;8.60;87.80
14140;DHT22;7150;53.514;9.988;2023-03-15T03:51:53;8.70;87.90
14140;DHT22;7150;53.514;9.988;2023-03-15T03:54:19;8.80;87.80
14140;DHT22;7150;53.514;9.988;2023-03-15T03:56:47;8.90;87.60
14140;DHT22;7150;53.514;9.988;2023-03-15T03:59:13;8.90;87.60
14140;DHT22;7150;53.514;9.988;2023-03-15T04:01:39;8.90;87.60
14140;DHT22;7150;53.514;9.988;2023-03-15T04:04:06;9.00;87.60
14140;DHT22;7150;53.514;9.988;2023-03-15T04:06:32;9.00;87.50
14140;DHT22;7150;53.514;9.988;2023-03-15T04:08:57;9.00;87.60
14140;DHT22;7150;53.514;9.988;2023-03-15T04:11:23;9.00;87.60
14140;DHT22;7150;53.514;9.988;2023-03-15T04:13:51;8.90;87.70
14140;DHT22;7150;53.514;9.988;2023-03-15T04:16:17;8.80;87.90
14140;DHT22;7150;53.514;9.988;2023-03-15T04:18:42;8.80;88.00
14140;DHT22;7150;53.514;9.988;2023-03-15T04:21:08;8.80;88.30
14140;DHT22;7150;53.514;9.988;2023-03-15T04:23:36;8.90;88.30
14140;DHT22;7150;53.514;9.988;2023-03-15T04:26:02;8.90;88.40
14140;DHT22;7150;53.514;9.988;2023-03-15T04:28:28;8.90;88.40
14140;DHT22;7150;53.514;9.988;2023-03-15T04:30:54;8.80;88.40
14140;DHT22;7150;53.514;9.988;2023-03-15T04:33:26;8.90;88.70
14140;DHT22;7150;53.514;9.988;2023-03-15T04:35:52;8.90;88.70
14140;DHT22;7150;53.514;9.988;2023-03-15T04:38:18;8.90;88.90
14140;DHT22;7150;53.514;9.988;2023-03-15T04:40:43;8.80;88.90
14140;DHT22;7150;53.514;9.988;2023-03-15T04:43:09;8.90;89.00
14140;DHT22;7150;53.514;9.988;2023-03-15T04:45:35;8.90;89.00
14140;DHT22;7150;53.514;9.988;2023-03-15T04:48:01;9.10;89.00
14140;DHT22;7150;53.514;9.988;2023-03-15T04:50:28;9.00;88.90
14140;DHT22;7150;53.514;9.988;2023-03-15T04:52:56;9.00;88.90
14140;DHT22;7150;53.514;9.988;2023-03-15T04:55:21;9.00;88.90
14140;DHT22;7150;53.514;9.988;2023-03-15T04:57:47;9.10;89.10
14140;DHT22;7150;53.514;9.988;2023-03-15T05:00:13;9.10;89.10
14140;DHT22;7150;53.514;9.988;2023-03-15T05:02:39;9.00;88.90
14140;DHT22;7150;53.514;9.988;2023-03-15T05:05:10;9.00;89.00
14140;DHT22;7150;53.514;9.988;2023-03-15T05:07:37;9.00;88.90
14140;DHT22;7150;53.514;9.988;2023-03-15T05:10:04;9.10;89.00
14140;DHT22;7150;53.514;9.988;2023-03-15T05:12:30;9.00;88.80
14140;DHT22;7150;53.514;9.988;2023-03-15T05:14:56;9.10;88.80
14140;DHT22;7150;53.514;9.988;2023-03-15T05:17:22;8.90;88.40
14140;DHT22;7150;53.514;9.988;2023-03-15T05:19:48;8.70;88.50
14140;DHT22;7150;53.514;9.988;2023-03-15T05:22:14;8.60;88.70
14140;DHT22;7150;53.514;9.988;2023-03-15T05:24:39;8.70;89.00
14140;DHT22;7150;53.514;9.988;2023-03-15T05:27:05;8.60;88.80
14140;DHT22;7150;53.514;9.988;2023-03-15T05:29:30;8.60;88.90
14140;DHT22;7150;53.514;9.988;2023-03-15T05:31:56;8.50;88.90
14140;DHT22;7150;53.514;9.988;2023-03-15T05:34:21;8.50;89.10
14140;DHT22;7150;53.514;9.988;2023-03-15T05:36:49;8.50;89.20
14140;DHT22;7150;53.514;9.988;2023-03-15T05:39:16;8.40;89.20
14140;DHT22;7150;53.514;9.988;2023-03-15T05:41:41;8.40;89.40
14140;DHT22;7150;53.514;9.988;2023-03-15T05:44:07;8.40;89.40
14140;DHT22;7150;53.514;9.988;2023-03-15T05:46:32;8.40;89.60
14140;DHT22;7150;53.514;9.988;2023-03-15T05:48:58;8.40;89.50
14140;DHT22;7150;53.514;9.988;2023-03-15T05:51:23;8.40;89.40
14140;DHT22;7150;53.514;9.988;2023-03-15T05:53:49;8.50;89.50
14140;DHT22;7150;53.514;9.988;2023-03-15T05:56:14;8.50;89.40
14140;DHT22;7150;53.514;9.988;2023-03-15T05:58:40;8.50;89.30
14140;DHT22;7150;53.514;9.988;2023-03-15T06:01:05;8.40;89.20
14140;DHT22;7150;53.514;9.988;2023-03-15T06:03:31;8.30;89.30
14140;DHT22;7150;53.514;9.988;2023-03-15T06:05:57;8.30;89.40
14140;DHT22;7150;53.514;9.988;2023-03-15T06:08:23;8.40;89.60
14140;DHT22;7150;53.514;9.988;2023-03-15T06:10:49;8.30;89.50
14140;DHT22;7150;53.514;9.988;2023-03-15T06:13:15;8.40;89.50
14140;DHT22;7150;53.514;9.988;2023-03-15T06:15:40;8.40;89.50
14140;DHT22;7150;53.514;9.988;2023-03-15T06:18:06;8.30;89.50
14140;DHT22;7150;53.514;9.988;2023-03-15T06:20:32;8.30;89.70
14140;DHT22;7150;53.514;9.988;2023-03-15T06:22:58;8.20;89.70
14140;DHT22;7150;53.514;9.988;2023-03-15T06:25:23;8.10;89.80
14140;DHT22;7150;53.514;9.988;2023-03-15T06:27:49;8.00;89.90
14140;DHT22;7150;53.514;9.988;2023-03-15T06:30:15;7.90;90.00
14140;DHT22;7150;53.514;9.988;2023-03-15T06:32:40;7.90;90.10
14140;DHT22;7150;53.514;9.988;2023-03-15T06:35:06;8.00;90.10
14140;DHT22;7150;53.514;9.988;2023-03-15T06:37:32;8.00;90.10
14140;DHT22;7150;53.514;9.988;2023-03-15T06:40:00;8.00;90.10
14140;DHT22;7150;53.514;9.988;2023-03-15T06:42:26;8.10;90.10
14140;DHT22;7150;53.514;9.988;2023-03-15T06:44:51;8.20;90.10
14140;DHT22;7150;53.514;9.988;2023-03-15T06:47:16;8.30;90.10
14140;DHT22;7150;53.514;9.988;2023-03-15T06:49:42;8.30;90.10
14140;DHT22;7150;53.514;9.988;2023-03-15T06:52:08;8.40;90.10
14140;DHT22;7150;53.514;9.988;2023-03-15T06:54:33;8.50;90.10
14140;DHT22;7150;53.514;9.988;2023-03-15T06:56:59;8.60;90.10
14140;DHT22;7150;53.514;9.988;2023-03-15T06:59:25;8.60;90.10
14140;DHT22;7150;53.514;9.988;2023-03-15T07:01:50;8.70;90.20
14140;DHT22;7150;53.514;9.988;2023-03-15T07:04:16;8.80;90.20
14140;DHT22;7150;53.514;9.988;2023-03-15T07:06:41;8.80;90.10
14140;DHT22;7150;53.514;9.988;2023-03-15T07:09:07;8.90;90.10
14140;DHT22;7150;53.514;9.988;2023-03-15T07:11:32;9.00;90.10
14140;DHT22;7150;53.514;9.988;2023-03-15T07:13:58;9.00;90.10
14140;DHT22;7150;53.514;9.988;2023-03-15T07:16:24;9.10;90.10
14140;DHT22;7150;53.514;9.988;2023-03-15T07:18:50;9.10;90.00
14140;DHT22;7150;53.514;9.988;2023-03-15T07:21:17;9.10;89.90
14140;DHT22;7150;53.514;9.988;2023-03-15T07:23:43;9.10;89.50
14140;DHT22;7150;53.514;9.988;2023-03-15T07:26:08;9.10;89.40
14140;DHT22;7150;53.514;9.988;2023-03-15T07:28:34;9.20;89.70
14140;DHT22;7150;53.514;9.988;2023-03-15T07:31:01;9.20;89.30
14140;DHT22;7150;53.514;9.988;2023-03-15T07:33:29;9.20;89.00
14140;DHT22;7150;53.514;9.988;2023-03-15T07:35:55;9.20;88.80
14140;DHT22;7150;53.514;9.988;2023-03-15T07:38:22;9.10;89.90
14140;DHT22;7150;53.514;9.988;2023-03-15T07:40:48;9.00;90.40
14140;DHT22;7150;53.514;9.988;2023-03-15T07:43:13;8.90;90.70
14140;DHT22;7150;53.514;9.988;2023-03-15T07:45:39;8.80;91.10
14140;DHT22;7150;53.514;9.988;2023-03-15T07:48:05;8.80;90.80
14140;DHT22;7150;53.514;9.988;2023-03-15T07:50:30;8.80;90.90
14140;DHT22;7150;53.514;9.988;2023-03-15T07:52:56;8.80;90.80
14140;DHT22;7150;53.514;9.988;2023-03-15T07:55:22;8.80;90.70
14140;DHT22;7150;53.514;9.988;2023-03-15T07:57:47;8.80;90.70
14140;DHT22;7150;53.514;9.988;2023-03-15T08:00:13;8.90;90.70
14140;DHT22;7150;53.514;9.988;2023-03-15T08:02:39;8.90;90.70
14140;DHT22;7150;53.514;9.988;2023-03-15T08:05:05;8.90;90.70
14140;DHT22;7150;53.514;9.988;2023-03-15T08:07:31;9.00;90.70
14140;DHT22;7150;53.514;9.988;2023-03-15T08:09:57;9.00;90.60
14140;DHT22;7150;53.514;9.988;2023-03-15T08:12:23;9.00;90.60
14140;DHT22;7150;53.514;9.988;2023-03-15T08:14:49;9.00;90.60
14140;DHT22;7150;53.514;9.988;2023-03-15T08:17:16;9.10;90.70
14140;DHT22;7150;53.514;9.988;2023-03-15T08:19:42;9.10;90.60
14140;DHT22;7150;53.514;9.988;2023-03-15T08:22:07;9.20;90.60
14140;DHT22;7150;53.514;9.988;2023-03-15T08:24:33;9.20;90.50
14140;DHT22;7150;53.514;9.988;2023-03-15T08:26:59;9.20;90.40
14140;DHT22;7150;53.514;9.988;2023-03-15T08:29:25;9.20;90.30
14140;DHT22;7150;53.514;9.988;2023-03-15T08:31:50;9.00;90.20
14140;DHT22;7150;53.514;9.988;2023-03-15T08:34:16;9.00;90.20
14140;DHT22;7150;53.514;9.988;2023-03-15T08:36:42;8.90;90.20
14140;DHT22;7150;53.514;9.988;2023-03-15T08:39:07;8.90;90.20
14140;DHT22;7150;53.514;9.988;2023-03-15T08:41:33;8.90;90.30
14140;DHT22;7150;53.514;9.988;2023-03-15T08:43:59;8.80;90.30
14140;DHT22;7150;53.514;9.988;2023-03-15T08:46:26;9.00;90.40
14140;DHT22;7150;53.514;9.988;2023-03-15T08:48:51;9.00;90.40
14140;DHT22;7150;53.514;9.988;2023-03-15T08:51:17;9.10;90.30
14140;DHT22;7150;53.514;9.988;2023-03-15T08:53:44;9.00;90.10
14140;DHT22;7150;53.514;9.988;2023-03-15T08:56:10;9.10;90.10
14140;DHT22;7150;53.514;9.988;2023-03-15T08:58:35;9.00;89.80
14140;DHT22;7150;53.514;9.988;2023-03-15T09:01:01;8.90;89.20
14140;DHT22;7150;53.514;9.988;2023-03-15T09:03:27;8.80;89.10
14140;DHT22;7150;53.514;9.988;2023-03-15T09:05:56;8.80;89.20
14140;DHT22;7150;53.514;9.988;2023-03-15T09:08:22;8.80;89.10
14140;DHT22;7150;53.514;9.988;2023-03-15T09:10:53;8.70;89.40
14140;DHT22;7150;53.514;9.988;2023-03-15T09:13:19;8.70;89.30
14140;DHT22;7150;53.514;9.988;2023-03-15T09:15:44;8.90;89.50
14140;DHT22;7150;53.514;9.988;2023-03-15T09:18:10;9.00;89.10
14140;DHT22;7150;53.514;9.988;2023-03-15T09:20:36;9.10;88.30
14140;DHT22;7150;53.514;9.988;2023-03-15T09:23:03;9.10;87.60
14140;DHT22;7150;53.514;9.988;2023-03-15T09:25:29;9.30;87.30
14140;DHT22;7150;53.514;9.988;2023-03-15T09:27:55;9.20;88.10
14140;DHT22;7150;53.514;9.988;2023-03-15T09:30:20;9.20;88.40
14140;DHT22;7150;53.514;9.988;2023-03-15T09:32:46;9.20;88.30
14140;DHT22;7150;53.514;9.988;2023-03-15T09:35:15;9.10;87.30
14140;DHT22;7150;53.514;9.988;2023-03-15T09:37:40;9.10;87.10
14140;DHT22;7150;53.514;9.988;2023-03-15T09:40:25;9.10;87.00
14140;DHT22;7150;53.514;9.988;2023-03-15T09:45:52;9.20;87.10
14140;DHT22;7150;53.514;9.988;2023-03-15T09:48:35;9.30;87.40
14140;DHT22;7150;53.514;9.988;2023-03-15T09:51:06;9.30;87.70
14140;DHT22;7150;53.514;9.988;2023-03-15T09:53:55;9.30;88.20
14140;DHT22;7150;53.514;9.988;2023-03-15T09:56:23;9.30;89.00
14140;DHT22;7150;53.514;9.988;2023-03-15T09:58:51;9.30;88.50
14140;DHT22;7150;53.514;9.988;2023-03-15T10:01:19;9.30;89.00
14140;DHT22;7150;53.514;9.988;2023-03-15T10:03:50;9.30;88.60
14140;DHT22;7150;53.514;9.988;2023-03-15T10:06:25;9.40;88.90
14140;DHT22;7150;53.514;9.988;2023-03-15T10:08:55;9.50;88.70
14140;DHT22;7150;53.514;9.988;2023-03-15T10:11:46;9.70;88.50
14140;DHT22;7150;53.514;9.988;2023-03-15T10:17:11;10.10;86.10
14140;DHT22;7150;53.514;9.988;2023-03-15T10:19:51;10.20;84.40
14140;DHT22;7150;53.514;9.988;2023-03-15T10:22:47;10.20;84.10
14140;DHT22;7150;53.514;9.988;2023-03-15T10:25:24;9.90;86.70
14140;DHT22;7150;53.514;9.988;2023-03-15T10:28:31;9.80;89.60
14140;DHT22;7150;53.514;9.988;2023-03-15T10:30:50;9.80;90.40
14140;DHT22;7150;53.514;9.988;2023-03-15T10:33:27;9.70;90.50
14140;DHT22;7150;53.514;9.988;2023-03-15T10:35:56;9.70;90.50
14140;DHT22;7150;53.514;9.988;2023-03-15T10:38:23;9.70;90.80
14140;DHT22;7150;53.514;9.988;2023-03-15T10:40:54;9.80;90.30
14140;DHT22;7150;53.514;9.988;2023-03-15T10:43:21;9.70;90.20
14140;DHT22;7150;53.514;9.988;2023-03-15T10:46:04;9.70;90.10
14140;DHT22;7150;53.514;9.988;2023-03-15T10:48:35;9.70;90.10
14140;DHT22;7150;53.514;9.988;2023-03-15T10:51:06;9.70;90.10
14140;DHT22;7150;53.514;9.988;2023-03-15T10:53:32;9.90;90.10
14140;DHT22;7150;53.514;9.988;2023-03-15T10:56:04;9.90;90.00
14140;DHT22;7150;53.514;9.988;2023-03-15T10:58:45;10.00;88.70
14140;DHT22;7150;53.514;9.988;2023-03-15T11:01:29;10.10;88.00
14140;DHT22;7150;53.514;9.988;2023-03-15T11:04:15;10.20;86.60
14140;DHT22;7150;53.514;9.988;2023-03-15T11:06:48;10.20;86.30
14140;DHT22;7150;53.514;9.988;2023-03-15T11:09:20;10.20;85.60
14140;DHT22;7150;53.514;9.988;2023-03-15T11:12:00;10.20;84.70
14140;DHT22;7150;53.514;9.988;2023-03-15T11:14:39;10.20;83.60
14140;DHT22;7150;53.514;9.988;2023-03-15T11:17:10;10.30;82.10
14140;DHT22;7150;53.514;9.988;2023-03-15T11:19:40;10.30;81.70
14140;DHT22;7150;53.514;9.988;2023-03-15T11:22:11;10.40;81.60
14140;DHT22;7150;53.514;9.988;2023-03-15T11:24:38;10.40;82.10
14140;DHT22;7150;53.514;9.988;2023-03-15T11:27:10;10.50;82.00
14140;DHT22;7150;53.514;9.988;2023-03-15T11:29:39;10.60;79.10
14140;DHT22;7150;53.514;9.988;2023-03-15T11:32:28;10.50;78.30
14140;DHT22;7150;53.514;9.988;2023-03-15T11:35:09;10.50;78.30
14140;DHT22;7150;53.514;9.988;2023-03-15T11:37:41;10.60;79.70
14140;DHT22;7150;53.514;9.988;2023-03-15T11:40:37;10.70;78.70
14140;DHT22;7150;53.514;9.988;2023-03-15T11:43:16;10.80;78.00
14140;DHT22;7150;53.514;9.988;2023-03-15T11:45:55;10.80;77.70
14140;DHT22;7150;53.514;9.988;2023-03-15T11:48:46;10.90;77.90
14140;DHT22;7150;53.514;9.988;2023-03-15T11:51:13;11.00;76.00
14140;DHT22;7150;53.514;9.988;2023-03-15T11:54:05;11.00;75.80
14140;DHT22;7150;53.514;9.988;2023-03-15T11:59:16;11.20;76.00
14140;DHT22;7150;53.514;9.988;2023-03-15T12:01:49;11.10;77.50
14140;DHT22;7150;53.514;9.988;2023-03-15T12:06:54;10.90;79.30
14140;DHT22;7150;53.514;9.988;2023-03-15T12:17:55;10.10;80.90
14140;DHT22;7150;53.514;9.988;2023-03-15T12:20:35;10.10;81.80
14140;DHT22;7150;53.514;9.988;2023-03-15T12:28:28;10.00;81.80
14140;DHT22;7150;53.514;9.988;2023-03-15T12:30:57;10.20;82.70
14140;DHT22;7150;53.514;9.988;2023-03-15T12:33:24;10.20;82.10
14140;DHT22;7150;53.514;9.988;2023-03-15T12:35:59;10.20;81.90
14140;DHT22;7150;53.514;9.988;2023-03-15T12:38:34;10.10;81.30
14140;DHT22;7150;53.514;9.988;2023-03-15T12:41:05;10.00;81.40
14140;DHT22;7150;53.514;9.988;2023-03-15T12:43:37;10.00;80.80
14140;DHT22;7150;53.514;9.988;2023-03-15T12:46:03;10.00;78.40
14140;DHT22;7150;53.514;9.988;2023-03-15T12:48:29;10.10;78.00
14140;DHT22;7150;53.514;9.988;2023-03-15T12:50:58;10.20;77.20
14140;DHT22;7150;53.514;9.988;2023-03-15T12:58:47;10.30;76.90
14140;DHT22;7150;53.514;9.988;2023-03-15T13:01:15;10.40;77.50
14140;DHT22;7150;53.514;9.988;2023-03-15T13:03:41;10.40;78.20
14140;DHT22;7150;53.514;9.988;2023-03-15T13:06:28;10.50;78.80
14140;DHT22;7150;53.514;9.988;2023-03-15T13:14:49;10.60;78.20
14140;DHT22;7150;53.514;9.988;2023-03-15T13:17:31;10.80;78.50
14140;DHT22;7150;53.514;9.988;2023-03-15T13:20:32;10.90;79.10
14140;DHT22;7150;53.514;9.988;2023-03-15T13:23:17;10.80;78.60
14140;DHT22;7150;53.514;9.988;2023-03-15T13:26:18;10.80;78.40
14140;DHT22;7150;53.514;9.988;2023-03-15T13:29:18;10.90;78.00
14140;DHT22;7150;53.514;9.988;2023-03-15T13:31:46;10.90;78.20
14140;DHT22;7150;53.514;9.988;2023-03-15T13:34:23;10.90;78.60
14140;DHT22;7150;53.514;9.988;2023-03-15T13:36:54;11.20;78.00
14140;DHT22;7150;53.514;9.988;2023-03-15T13:39:25;11.30;77.60
14140;DHT22;7150;53.514;9.988;2023-03-15T13:41:58;11.40;77.10
14140;DHT22;7150;53.514;9.988;2023-03-15T13:44:24;11.50;73.30
14140;DHT22;7150;53.514;9.988;2023-03-15T13:46:51;11.60;72.90
14140;DHT22;7150;53.514;9.988;2023-03-15T13:49:18;11.70;71.50
14140;DHT22;7150;53.514;9.988;2023-03-15T13:51:45;11.80;70.80
14140;DHT22;7150;53.514;9.988;2023-03-15T13:54:25;11.90;70.40
14140;DHT22;7150;53.514;9.988;2023-03-15T13:56:56;12.00;69.30
14140;DHT22;7150;53.514;9.988;2023-03-15T13:59:26;12.10;67.60
14140;DHT22;7150;53.514;9.988;2023-03-15T14:01:55;12.10;67.50
14140;DHT22;7150;53.514;9.988;2023-03-15T14:04:21;12.00;67.70
14140;DHT22;7150;53.514;9.988;2023-03-15T14:06:48;11.70;68.20
14140;DHT22;7150;53.514;9.988;2023-03-15T14:09:23;12.10;68.70
14140;DHT22;7150;53.514;9.988;2023-03-15T14:12:14;12.10;68.00
14140;DHT22;7150;53.514;9.988;2023-03-15T14:14:51;12.00;67.70
14140;DHT22;7150;53.514;9.988;2023-03-15T14:17:26;12.00;66.80
14140;DHT22;7150;53.514;9.988;2023-03-15T14:19:54;11.80;67.80
14140;DHT22;7150;53.514;9.988;2023-03-15T14:22:20;11.70;68.60
14140;DHT22;7150;53.514;9.988;2023-03-15T14:24:48;11.50;69.60
14140;DHT22;7150;53.514;9.988;2023-03-15T14:27:17;11.40;70.50
14140;DHT22;7150;53.514;9.988;2023-03-15T14:29:57;11.30;71.30
14140;DHT22;7150;53.514;9.988;2023-03-15T14:32:35;11.20;70.70
14140;DHT22;7150;53.514;9.988;2023-03-15T14:35:02;11.10;70.40
14140;DHT22;7150;53.514;9.988;2023-03-15T14:37:37;11.00;70.20
14140;DHT22;7150;53.514;9.988;2023-03-15T14:40:21;11.00;69.70
14140;DHT22;7150;53.514;9.988;2023-03-15T14:42:48;10.90;69.40
14140;DHT22;7150;53.514;9.988;2023-03-15T14:45:14;10.90;69.60
14140;DHT22;7150;53.514;9.988;2023-03-15T14:47:45;10.90;69.80
14140;DHT22;7150;53.514;9.988;2023-03-15T14:50:19;10.90;70.40
14140;DHT22;7150;53.514;9.988;2023-03-15T14:52:45;10.90;71.00
14140;DHT22;7150;53.514;9.988;2023-03-15T14:55:15;10.80;71.60
14140;DHT22;7150;53.514;9.988;2023-03-15T14:57:41;10.80;72.10
14140;DHT22;7150;53.514;9.988;2023-03-15T15:00:09;10.90;72.50
14140;DHT22;7150;53.514;9.988;2023-03-15T15:02:38;10.90;72.90
14140;DHT22;7150;53.514;9.988;2023-03-15T15:05:23;10.90;73.30
14140;DHT22;7150;53.514;9.988;2023-03-15T15:07:50;11.00;73.50
14140;DHT22;7150;53.514;9.988;2023-03-15T15:10:20;11.10;73.80
14140;DHT22;7150;53.514;9.988;2023-03-15T15:12:46;11.10;73.90
14140;DHT22;7150;53.514;9.988;2023-03-15T15:15:17;11.20;74.10
14140;DHT22;7150;53.514;9.988;2023-03-15T15:17:44;11.20;74.10
14140;DHT22;7150;53.514;9.988;2023-03-15T15:20:10;11.20;74.10
14140;DHT22;7150;53.514;9.988;2023-03-15T15:22:41;11.30;73.90
14140;DHT22;7150;53.514;9.988;2023-03-15T15:25:18;11.30;74.00
14140;DHT22;7150;53.514;9.988;2023-03-15T15:27:44;11.30;74.00
14140;DHT22;7150;53.514;9.988;2023-03-15T15:30:12;11.30;74.10
14140;DHT22;7150;53.514;9.988;2023-03-15T15:32:38;11.40;74.30
14140;DHT22;7150;53.514;9.988;2023-03-15T15:35:05;11.50;74.00
14140;DHT22;7150;53.514;9.988;2023-03-15T15:37:31;11.50;73.70
14140;DHT22;7150;53.514;9.988;2023-03-15T15:39:56;11.60;73.30
14140;DHT22;7150;53.514;9.988;2023-03-15T15:42:22;11.60;73.40
14140;DHT22;7150;53.514;9.988;2023-03-15T15:44:47;11.70;73.40
14140;DHT22;7150;53.514;9.988;2023-03-15T15:47:13;11.80;72.70
14140;DHT22;7150;53.514;9.988;2023-03-15T15:49:38;11.80;70.10
14140;DHT22;7150;53.514;9.988;2023-03-15T15:52:04;11.80;67.50
14140;DHT22;7150;53.514;9.988;2023-03-15T15:54:29;11.80;66.20
14140;DHT22;7150;53.514;9.988;2023-03-15T15:56:57;11.70;66.00
14140;DHT22;7150;53.514;9.988;2023-03-15T15:59:23;11.50;65.50
14140;DHT22;7150;53.514;9.988;2023-03-15T16:01:53;11.50;65.70
14140;DHT22;7150;53.514;9.988;2023-03-15T16:04:19;11.60;66.30
14140;DHT22;7150;53.514;9.988;2023-03-15T16:06:51;11.70;66.40
14140;DHT22;7150;53.514;9.988;2023-03-15T16:09:18;11.70;66.30
14140;DHT22;7150;53.514;9.988;2023-03-15T16:11:44;11.70;65.70
14140;DHT22;7150;53.514;9.988;2023-03-15T16:14:11;11.70;64.70
14140;DHT22;7150;53.514;9.988;2023-03-15T16:16:37;11.70;64.50
14140;DHT22;7150;53.514;9.988;2023-03-15T16:19:03;11.60;64.30
14140;DHT22;7150;53.514;9.988;2023-03-15T16:21:32;11.70;64.40
14140;DHT22;7150;53.514;9.988;2023-03-15T16:24:05;11.70;64.30
14140;DHT22;7150;53.514;9.988;2023-03-15T16:26:34;11.60;64.40
14140;DHT22;7150;53.514;9.988;2023-03-15T16:29:00;11.70;64.60
14140;DHT22;7150;53.514;9.988;2023-03-15T16:31:26;11.60;64.10
14140;DHT22;7150;53.514;9.988;2023-03-15T16:33:52;11.60;63.90
14140;DHT22;7150;53.514;9.988;2023-03-15T16:36:20;11.60;63.20
14140;DHT22;7150;53.514;9.988;2023-03-15T16:38:46;11.50;63.20
14140;DHT22;7150;53.514;9.988;2023-03-15T16:41:13;11.50;62.70
14140;DHT22;7150;53.514;9.988;2023-03-15T16:43:39;11.40;63.30
14140;DHT22;7150;53.514;9.988;2023-03-15T16:46:14;11.40;63.50
14140;DHT22;7150;53.514;9.988;2023-03-15T16:48:40;11.40;64.50
14140;DHT22;7150;53.514;9.988;2023-03-15T16:51:06;11.50;64.20
14140;DHT22;7150;53.514;9.988;2023-03-15T16:53:33;11.40;64.90